Time;durP1;ratioP1;P1;durP2;ratioP2;P2;SDS_P1;SDS_P2;PMS_P1;PMS_P2;Temp;Humidity;BMP_temperature;BMP_pressure;BME280_temperature;BME280_humidity;BME280_pressure;Samples;Min_cycle;Max_cycle;Signal;HPM_P1;HPM_P2
2023/07/25 00:00:47;;;;;;;;;;;;;;;30.73;39.26;100236.21;102474;1305;61342;-82
2023/07/25 00:03:14;;;;;;;;;;;;;;;30.73;39.33;100238.94;102239;1302;63946;-82
2023/07/25 00:05:39;;;;;;;;;;;;;;;30.73;39.32;100247.35;102311;1308;61435;-83
2023/07/25 00:08:05;;;;;;;;;;;;;;;30.73;39.32;100241.89;102522;1300;61448;-83
2023/07/25 00:10:32;;;;;;;;;;;;;;;30.72;39.34;100238.13;102490;1300;61470;-83
2023/07/25 00:12:58;;;;;;;;;;;;;;;30.72;39.33;100235.45;102481;1304;61447;-82
2023/07/25 00:15:23;;;;;;;;;;;;;;;30.71;39.40;100227.34;102360;1305;61429;-83
2023/07/25 00:17:49;;;;;;;;;;;;;;;30.71;39.37;100229.16;102482;1305;61383;-82
2023/07/25 00:20:14;;;;;;;;;;;;;;;30.72;39.39;100228.40;102343;1308;61391;-82
2023/07/25 00:22:40;;;;;;;;;;;;;;;30.71;39.38;100227.55;102473;1305;61444;-82
2023/07/25 00:25:06;;;;;;;;;;;;;;;30.71;39.35;100232.29;102430;1304;61419;-82
2023/07/25 00:27:31;;;;;;;;;;;;;;;30.71;39.40;100231.24;102628;1308;61408;-82
2023/07/25 00:29:57;;;;;;;;;;;;;;;30.71;39.52;100233.05;102234;1300;61876;-82
2023/07/25 00:32:23;;;;;;;;;;;;;;;30.71;39.39;100239.23;102291;1300;61457;-82
2023/07/25 00:34:51;;;;;;;;;;;;;;;30.71;39.49;100238.15;102447;1300;61428;-82
2023/07/25 00:37:17;;;;;;;;;;;;;;;30.71;39.42;100235.27;102462;1300;63871;-82
2023/07/25 00:39:42;;;;;;;;;;;;;;;30.70;39.46;100223.31;102440;1300;61373;-82
2023/07/25 00:42:08;;;;;;;;;;;;;;;30.70;39.36;100221.50;102348;1300;61403;-82
2023/07/25 00:44:33;;;;;;;;;;;;;;;30.70;39.53;100218.99;102367;1300;61447;-82
2023/07/25 00:46:58;;;;;;;;;;;;;;;30.70;39.56;100216.09;102486;1305;61316;-82
2023/07/25 00:49:24;;;;;;;;;;;;;;;30.70;39.51;100215.34;102412;1300;62129;-82
2023/07/25 00:51:49;;;;;;;;;;;;;;;30.70;39.53;100211.56;102428;1300;61434;-82
2023/07/25 00:54:15;;;;;;;;;;;;;;;30.70;39.52;100203.94;102435;1300;61501;-83
2023/07/25 00:56:40;;;;;;;;;;;;;;;30.70;39.53;100203.93;102379;1305;61418;-82
2023/07/25 00:59:06;;;;;;;;;;;;;;;30.70;39.48;100204.69;102484;1300;61438;-82
2023/07/25 01:01:31;;;;;;;;;;;;;;;30.69;39.54;100213.06;102484;1300;61396;-82
2023/07/25 01:03:57;;;;;;;;;;;;;;;30.69;39.61;100214.36;102374;1300;61466;-83
2023/07/25 01:06:22;;;;;;;;;;;;;;;30.69;39.58;100212.94;102326;1300;61376;-82
2023/07/25 01:08:51;;;;;;;;;;;;;;;30.69;39.60;100209.33;102515;1305;61882;-82
2023/07/25 01:11:17;;;;;;;;;;;;;;;30.69;39.58;100207.11;102488;1300;61336;-82
2023/07/25 01:13:42;;;;;;;;;;;;;;;30.69;39.67;100205.30;102372;1300;61441;-82
2023/07/25 01:16:15;;;;;;;;;;;;;;;30.69;39.62;100197.13;102393;1302;61319;-81
2023/07/25 01:18:40;;;;;;;;;;;;;;;30.69;39.64;100190.63;102444;1304;61415;-82
2023/07/25 01:21:06;;;;;;;;;;;;;;;30.69;39.65;100197.34;102443;1300;61475;-82
2023/07/25 01:23:31;;;;;;;;;;;;;;;30.68;39.58;100201.77;102368;1307;61345;-82
2023/07/25 01:25:57;;;;;;;;;;;;;;;30.69;39.61;100201.54;102488;1300;61431;-82
2023/07/25 01:28:22;;;;;;;;;;;;;;;30.68;39.64;100198.64;102505;1304;61387;-82
2023/07/25 01:30:48;;;;;;;;;;;;;;;30.68;39.61;100196.84;102424;1305;61571;-82
2023/07/25 01:33:13;;;;;;;;;;;;;;;30.68;39.50;100199.65;102298;1300;61425;-82
2023/07/25 01:35:39;;;;;;;;;;;;;;;30.68;39.68;100205.09;102301;1305;61410;-82
2023/07/25 01:38:04;;;;;;;;;;;;;;;30.68;39.65;100204.38;102426;1305;61465;-82
2023/07/25 01:40:29;;;;;;;;;;;;;;;30.68;39.71;100200.31;102451;1300;61977;-82
2023/07/25 01:42:55;;;;;;;;;;;;;;;30.68;39.60;100198.17;102388;1303;63013;-82
2023/07/25 01:45:21;;;;;;;;;;;;;;;30.68;39.63;100196.03;102438;1305;61444;-82
2023/07/25 01:47:47;;;;;;;;;;;;;;;30.68;39.72;100192.39;102299;1308;61879;-82
2023/07/25 01:50:12;;;;;;;;;;;;;;;30.68;39.78;100196.04;102281;1300;61438;-82
2023/07/25 01:52:37;;;;;;;;;;;;;;;30.67;39.75;100196.99;102432;1303;61441;-82
2023/07/25 01:55:03;;;;;;;;;;;;;;;30.67;39.71;100203.02;102439;1300;61299;-82
2023/07/25 01:57:28;;;;;;;;;;;;;;;30.67;39.68;100205.67;102601;1303;61437;-83
2023/07/25 01:59:54;;;;;;;;;;;;;;;30.66;39.76;100203.97;102443;1305;74262;-82
2023/07/25 02:02:19;;;;;;;;;;;;;;;30.67;39.72;100200.12;102310;1300;61429;-82
2023/07/25 02:04:46;;;;;;;;;;;;;;;30.66;39.72;100194.91;102347;1300;61307;-82
2023/07/25 02:07:12;;;;;;;;;;;;;;;30.66;39.70;100196.88;102604;1300;62063;-82
2023/07/25 02:09:38;;;;;;;;;;;;;;;30.66;39.77;100194.91;102289;1299;61383;-82
2023/07/25 02:12:05;;;;;;;;;;;;;;;30.66;39.76;100188.58;102436;1300;61261;-82
2023/07/25 02:14:31;;;;;;;;;;;;;;;30.66;39.80;100192.18;102260;1305;61387;-83
2023/07/25 02:16:56;;;;;;;;;;;;;;;30.66;39.80;100196.77;102245;1305;61527;-82
2023/07/25 02:19:22;;;;;;;;;;;;;;;30.66;39.81;100199.48;102242;1305;61431;-82
2023/07/25 02:21:47;;;;;;;;;;;;;;;30.66;39.85;100191.65;102253;1305;61413;-82
2023/07/25 02:24:12;;;;;;;;;;;;;;;30.66;39.74;100186.95;102301;1308;61639;-82
2023/07/25 02:26:38;;;;;;;;;;;;;;;30.66;39.77;100183.73;102211;1306;61518;-83
2023/07/25 02:29:03;;;;;;;;;;;;;;;30.65;39.78;100184.48;102212;1306;61403;-82
2023/07/25 02:31:29;;;;;;;;;;;;;;;30.66;39.75;100192.06;102182;1303;61502;-82
2023/07/25 02:33:54;;;;;;;;;;;;;;;30.65;39.86;100201.40;102271;1306;61432;-82
2023/07/25 02:36:19;;;;;;;;;;;;;;;30.66;39.79;100212.09;102211;1308;63629;-83
2023/07/25 02:38:45;;;;;;;;;;;;;;;30.65;39.88;100216.29;102194;1306;61729;-82
2023/07/25 02:41:10;;;;;;;;;;;;;;;30.66;39.78;100214.78;102175;1308;61428;-82
2023/07/25 02:43:36;;;;;;;;;;;;;;;30.66;39.81;100210.45;102312;1306;62070;-82
2023/07/25 02:46:03;;;;;;;;;;;;;;;30.65;39.83;100209.91;102322;1300;61480;-82
2023/07/25 02:48:28;;;;;;;;;;;;;;;30.65;39.83;100211.58;102356;1300;64163;-82
2023/07/25 02:50:54;;;;;;;;;;;;;;;30.65;39.93;100208.48;102316;1300;61492;-82
2023/07/25 02:53:19;;;;;;;;;;;;;;;30.65;39.89;100216.52;102440;1306;61502;-82
2023/07/25 02:55:44;;;;;;;;;;;;;;;30.65;39.90;100218.13;102329;1300;61518;-82
2023/07/25 02:58:12;;;;;;;;;;;;;;;30.65;39.84;100214.52;102339;1299;61387;-82
2023/07/25 03:00:38;;;;;;;;;;;;;;;30.65;39.86;100218.70;102511;1300;63640;-83
2023/07/25 03:03:03;;;;;;;;;;;;;;;30.65;39.86;100223.06;102543;1300;61413;-82
2023/07/25 03:05:29;;;;;;;;;;;;;;;30.65;39.93;100226.84;102432;1305;61457;-82
2023/07/25 03:07:55;;;;;;;;;;;;;;;30.64;39.99;100230.01;102287;1300;61466;-83
2023/07/25 03:10:22;;;;;;;;;;;;;;;30.65;39.87;100235.41;102293;1308;61485;-82
2023/07/25 03:12:47;;;;;;;;;;;;;;;30.64;39.92;100234.55;102606;1302;61389;-82
2023/07/25 03:15:13;;;;;;;;;;;;;;;30.65;40.04;100236.89;102319;1303;61383;-82
2023/07/25 03:17:39;;;;;;;;;;;;;;;30.64;39.96;100231.85;102306;1303;61451;-82
2023/07/25 03:20:06;;;;;;;;;;;;;;;30.64;39.99;100228.96;102422;1300;61515;-82
2023/07/25 03:22:31;;;;;;;;;;;;;;;30.65;40.10;100227.29;102424;1300;63935;-83
2023/07/25 03:24:57;;;;;;;;;;;;;;;30.64;39.99;100222.64;102304;1300;61413;-82
2023/07/25 03:27:22;;;;;;;;;;;;;;;30.64;40.08;100223.30;102307;1299;61418;-82
2023/07/25 03:29:48;;;;;;;;;;;;;;;30.64;40.08;100216.23;102301;1299;61515;-82
2023/07/25 03:32:13;;;;;;;;;;;;;;;30.65;39.90;100213.08;102487;1300;61457;-82
2023/07/25 03:34:39;;;;;;;;;;;;;;;30.64;39.93;100211.49;102299;1299;63766;-82
2023/07/25 03:37:05;;;;;;;;;;;;;;;30.65;39.92;100211.66;102373;1300;61444;-82
2023/07/25 03:39:30;;;;;;;;;;;;;;;30.65;40.05;100215.30;102519;1300;61441;-83
2023/07/25 03:41:55;;;;;;;;;;;;;;;30.65;40.15;100217.98;102288;1300;61386;-82
2023/07/25 03:44:21;;;;;;;;;;;;;;;30.64;40.07;100211.86;102323;1302;61454;-82
2023/07/25 03:46:47;;;;;;;;;;;;;;;30.65;40.01;100212.04;102339;1306;61418;-83
2023/07/25 03:49:12;;;;;;;;;;;;;;;30.65;40.02;100220.91;102441;1305;61434;-82
2023/07/25 03:51:37;;;;;;;;;;;;;;;30.65;40.15;100219.45;102480;1300;61457;-82
2023/07/25 03:54:06;;;;;;;;;;;;;;;30.65;40.21;100212.38;102470;1300;61508;-82
2023/07/25 03:56:32;;;;;;;;;;;;;;;30.64;40.09;100211.16;102306;1300;61454;-83
2023/07/25 03:58:58;;;;;;;;;;;;;;;30.64;40.00;100208.98;102505;1300;61447;-82
2023/07/25 04:01:23;;;;;;;;;;;;;;;30.64;40.15;100203.36;102536;1300;61498;-83
2023/07/25 04:03:48;;;;;;;;;;;;;;;30.65;40.15;100191.13;102459;1300;61431;-82
2023/07/25 04:06:14;;;;;;;;;;;;;;;30.64;39.96;100193.73;102429;1300;61332;-82
2023/07/25 04:08:39;;;;;;;;;;;;;;;30.64;40.07;100191.54;102284;1300;61561;-82
2023/07/25 04:11:05;;;;;;;;;;;;;;;30.64;40.14;100197.20;102277;1300;61409;-82
2023/07/25 04:13:31;;;;;;;;;;;;;;;30.64;40.10;100204.83;102364;1300;61423;-82
2023/07/25 04:15:57;;;;;;;;;;;;;;;30.64;40.14;100201.77;102497;1300;61506;-82
2023/07/25 04:18:22;;;;;;;;;;;;;;;30.64;40.10;100203.82;102307;1300;62871;-82
2023/07/25 04:20:48;;;;;;;;;;;;;;;30.63;40.12;100211.85;102446;1300;63845;-82
2023/07/25 04:23:15;;;;;;;;;;;;;;;30.63;40.06;100218.56;102352;1307;65757;-82
2023/07/25 04:25:41;;;;;;;;;;;;;;;30.63;40.03;100225.29;102283;1300;61520;-82
2023/07/25 04:28:07;;;;;;;;;;;;;;;30.62;40.14;100228.08;102407;1305;61354;-82
2023/07/25 04:30:33;;;;;;;;;;;;;;;30.63;40.15;100226.25;102477;1299;62243;-83
2023/07/25 04:32:58;;;;;;;;;;;;;;;30.62;40.08;100220.50;103094;1300;61358;-83
2023/07/25 04:35:23;;;;;;;;;;;;;;;30.61;40.00;100212.41;102465;1300;61513;-83
2023/07/25 04:37:49;;;;;;;;;;;;;;;30.61;40.12;100209.89;102272;1300;61466;-82
2023/07/25 04:40:14;;;;;;;;;;;;;;;30.60;40.03;100202.92;102301;1300;61435;-82
2023/07/25 04:42:40;;;;;;;;;;;;;;;30.60;40.07;100208.70;102304;1306;61432;-82
2023/07/25 04:45:05;;;;;;;;;;;;;;;30.60;40.03;100206.40;102492;1304;61308;-82
2023/07/25 04:47:31;;;;;;;;;;;;;;;30.59;39.99;100194.10;102458;1300;61503;-82
2023/07/25 04:49:56;;;;;;;;;;;;;;;30.59;40.00;100187.95;102303;1300;61518;-82
2023/07/25 04:52:21;;;;;;;;;;;;;;;30.59;39.98;100180.48;102273;1300;61511;-83
2023/07/25 04:54:47;;;;;;;;;;;;;;;30.59;39.91;100172.31;102429;1305;61329;-82
2023/07/25 04:57:12;;;;;;;;;;;;;;;30.59;39.85;100174.37;102451;1300;61483;-82
2023/07/25 04:59:38;;;;;;;;;;;;;;;30.59;39.83;100195.07;102314;1300;61427;-82
2023/07/25 05:02:03;;;;;;;;;;;;;;;30.59;39.92;100203.24;102304;1303;61413;-82
2023/07/25 05:04:29;;;;;;;;;;;;;;;30.58;39.80;100208.02;102431;1300;61911;-82
2023/07/25 05:06:56;;;;;;;;;;;;;;;30.59;39.73;100205.96;102444;1300;61431;-82
2023/07/25 05:09:21;;;;;;;;;;;;;;;30.59;39.80;100210.33;102571;1300;61367;-82
2023/07/25 05:11:48;;;;;;;;;;;;;;;30.59;39.82;100218.61;102437;1300;61416;-82
2023/07/25 05:14:14;;;;;;;;;;;;;;;30.59;39.83;100220.05;102462;1300;61455;-82
2023/07/25 05:16:39;;;;;;;;;;;;;;;30.60;39.62;100223.27;102702;1300;61539;-82
2023/07/25 05:19:04;;;;;;;;;;;;;;;30.60;39.77;100222.56;102459;1300;63924;-82
2023/07/25 05:21:30;;;;;;;;;;;;;;;30.60;39.58;100216.91;102584;1300;61435;-81
2023/07/25 05:23:56;;;;;;;;;;;;;;;30.60;39.63;100214.02;102607;1300;61457;-82
2023/07/25 05:26:21;;;;;;;;;;;;;;;30.60;39.61;100220.17;102465;1303;61437;-81
2023/07/25 05:28:47;;;;;;;;;;;;;;;30.60;39.65;100224.91;102359;1303;61496;-82
2023/07/25 05:31:13;;;;;;;;;;;;;;;30.60;39.59;100223.41;102325;1303;63811;-83
2023/07/25 05:33:38;;;;;;;;;;;;;;;30.61;39.51;100230.80;102637;1300;61805;-82
2023/07/25 05:36:03;;;;;;;;;;;;;;;30.62;39.61;100225.07;102752;1299;61930;-82
2023/07/25 05:38:29;;;;;;;;;;;;;;;30.63;39.51;100223.33;102759;1299;61348;-82
2023/07/25 05:40:57;;;;;;;;;;;;;;;30.63;39.46;100221.98;102759;1300;61505;-82
2023/07/25 05:43:23;;;;;;;;;;;;;;;30.64;39.43;100219.70;102890;1300;63960;-82
2023/07/25 05:45:48;;;;;;;;;;;;;;;30.65;39.49;100216.69;102827;1300;61416;-82
2023/07/25 05:48:14;;;;;;;;;;;;;;;30.65;39.48;100213.56;102876;1300;61493;-82
2023/07/25 05:50:39;;;;;;;;;;;;;;;30.67;39.41;100213.62;102569;1300;61396;-82
2023/07/25 05:53:04;;;;;;;;;;;;;;;30.67;39.32;100208.61;102720;1300;61572;-82
2023/07/25 05:55:30;;;;;;;;;;;;;;;30.68;39.40;100206.64;102562;1305;61313;-82
2023/07/25 05:57:55;;;;;;;;;;;;;;;30.69;39.27;100204.02;102676;1300;61515;-82
2023/07/25 06:00:22;;;;;;;;;;;;;;;30.70;39.31;100199.03;102741;1300;61410;-82
2023/07/25 06:02:48;;;;;;;;;;;;;;;30.71;39.24;100186.39;102688;1302;62051;-82
2023/07/25 06:05:14;;;;;;;;;;;;;;;30.71;39.26;100182.88;102633;1303;61766;-82
2023/07/25 06:07:39;;;;;;;;;;;;;;;30.72;39.24;100183.72;102845;1299;61441;-82
2023/07/25 06:10:05;;;;;;;;;;;;;;;30.72;39.15;100181.08;102762;1300;66034;-82
2023/07/25 06:12:31;;;;;;;;;;;;;;;30.73;39.14;100177.36;102756;1303;61445;-82
2023/07/25 06:14:56;;;;;;;;;;;;;;;30.74;39.21;100173.85;102766;1301;61507;-82
2023/07/25 06:17:22;;;;;;;;;;;;;;;30.75;39.08;100173.70;102846;1299;61445;-82
2023/07/25 06:19:47;;;;;;;;;;;;;;;30.75;39.13;100168.34;103075;1300;61408;-82
2023/07/25 06:22:14;;;;;;;;;;;;;;;30.76;39.02;100165.92;102877;1306;61498;-82
2023/07/25 06:24:40;;;;;;;;;;;;;;;30.77;38.99;100168.92;102746;1300;61300;-82
2023/07/25 06:27:06;;;;;;;;;;;;;;;30.78;39.01;100174.62;102756;1300;61419;-82
2023/07/25 06:29:32;;;;;;;;;;;;;;;30.78;38.89;100172.36;102705;1305;61382;-82
2023/07/25 06:31:58;;;;;;;;;;;;;;;30.80;38.94;100167.30;102683;1305;61492;-82
2023/07/25 06:34:23;;;;;;;;;;;;;;;30.80;38.92;100160.73;103074;1300;62568;-82
2023/07/25 06:36:49;;;;;;;;;;;;;;;30.81;38.91;100154.45;102946;1299;61280;-82
2023/07/25 06:39:14;;;;;;;;;;;;;;;30.81;38.90;100153.54;102893;1302;61328;-82
2023/07/25 06:41:40;;;;;;;;;;;;;;;30.82;38.98;100150.90;102810;1300;61365;-83
2023/07/25 06:44:05;;;;;;;;;;;;;;;30.82;38.83;100150.45;103322;1300;61419;-82
2023/07/25 06:46:31;;;;;;;;;;;;;;;30.83;38.88;100156.54;103147;1299;61448;-82
2023/07/25 06:48:56;;;;;;;;;;;;;;;30.84;38.80;100155.00;102975;1300;61386;-82
2023/07/25 06:51:22;;;;;;;;;;;;;;;30.84;38.82;100150.39;103114;1300;61405;-82
2023/07/25 06:53:47;;;;;;;;;;;;;;;30.85;38.71;100145.75;102903;1305;61463;-82
2023/07/25 06:56:12;;;;;;;;;;;;;;;30.86;38.71;100147.11;102712;1300;61376;-82
2023/07/25 06:58:38;;;;;;;;;;;;;;;30.86;38.63;100144.50;103640;1300;61438;-82
2023/07/25 07:01:03;;;;;;;;;;;;;;;30.87;38.61;100142.39;103294;1303;61520;-82
2023/07/25 07:03:30;;;;;;;;;;;;;;;30.88;38.72;100143.61;102798;1300;61290;-82
2023/07/25 07:05:55;;;;;;;;;;;;;;;30.88;38.60;100146.63;102897;1305;61476;-82
2023/07/25 07:08:21;;;;;;;;;;;;;;;30.89;38.55;100149.23;102669;1305;61368;-82
2023/07/25 07:10:52;;;;;;;;;;;;;;;30.89;38.50;100152.13;102477;1299;651566;-82
2023/07/25 07:13:17;;;;;;;;;;;;;;;30.90;38.42;100149.91;102857;1300;61266;-82
2023/07/25 07:15:44;;;;;;;;;;;;;;;30.90;38.38;100143.34;102880;1300;61695;-82
2023/07/25 07:18:10;;;;;;;;;;;;;;;30.90;38.47;100142.41;104097;1300;61428;-82
2023/07/25 07:20:35;;;;;;;;;;;;;;;30.90;38.50;100141.16;103202;1300;61313;-82
2023/07/25 07:23:01;;;;;;;;;;;;;;;30.90;38.43;100141.08;102701;1303;61613;-83
2023/07/25 07:25:26;;;;;;;;;;;;;;;30.91;38.49;100148.59;102790;1303;61552;-82
2023/07/25 07:27:52;;;;;;;;;;;;;;;30.92;38.41;100151.08;102728;1303;63820;-82
2023/07/25 07:30:18;;;;;;;;;;;;;;;30.92;38.36;100160.17;102953;1302;59450;-82
2023/07/25 07:32:43;;;;;;;;;;;;;;;30.92;38.26;100166.67;102501;1308;61576;-82
2023/07/25 07:35:09;;;;;;;;;;;;;;;30.92;38.26;100163.61;102443;1303;61803;-82
2023/07/25 07:37:34;;;;;;;;;;;;;;;30.92;38.19;100161.81;102389;1303;61425;-82
2023/07/25 07:40:00;;;;;;;;;;;;;;;30.92;38.12;100163.58;102670;1304;61527;-82
2023/07/25 07:42:25;;;;;;;;;;;;;;;30.92;38.13;100154.19;102587;1303;61463;-82
2023/07/25 07:44:50;;;;;;;;;;;;;;;30.92;38.17;100153.46;102608;1308;61327;-82
2023/07/25 07:47:16;;;;;;;;;;;;;;;30.91;38.10;100154.77;102700;1303;61431;-82
2023/07/25 07:49:41;;;;;;;;;;;;;;;30.92;38.12;100148.56;102815;1302;61875;-82
2023/07/25 07:52:07;;;;;;;;;;;;;;;30.91;38.05;100145.86;102676;1302;64095;-82
2023/07/25 07:54:33;;;;;;;;;;;;;;;30.91;38.01;100146.03;102861;1300;63376;-82
2023/07/25 07:56:58;;;;;;;;;;;;;;;30.91;37.99;100140.59;102812;1300;61338;-83
2023/07/25 07:59:24;;;;;;;;;;;;;;;30.91;37.95;100138.20;102720;1300;61441;-80
2023/07/25 08:01:49;;;;;;;;;;;;;;;30.92;37.84;100139.21;102933;1300;61421;-81
2023/07/25 08:04:15;;;;;;;;;;;;;;;30.92;37.86;100128.64;102665;1300;61473;-81
2023/07/25 08:06:40;;;;;;;;;;;;;;;30.93;37.80;100119.72;102434;1302;61403;-83
2023/07/25 08:09:08;;;;;;;;;;;;;;;30.93;37.81;100119.34;102723;1300;61463;-82
2023/07/25 08:11:33;;;;;;;;;;;;;;;30.92;37.80;100121.56;102701;1299;61395;-83
2023/07/25 08:13:58;;;;;;;;;;;;;;;30.92;37.72;100113.05;102709;1302;61452;-82
2023/07/25 08:16:24;;;;;;;;;;;;;;;30.92;37.65;100111.21;102458;1300;61827;-83
2023/07/25 08:18:50;;;;;;;;;;;;;;;30.92;37.64;100107.56;102747;1300;61401;-83
2023/07/25 08:21:16;;;;;;;;;;;;;;;30.92;37.66;100100.10;102746;1300;61317;-83
2023/07/25 08:23:41;;;;;;;;;;;;;;;30.93;37.53;100088.45;102645;1300;61432;-83
2023/07/25 08:26:07;;;;;;;;;;;;;;;30.93;37.44;100080.06;102587;1302;61434;-83
2023/07/25 08:28:32;;;;;;;;;;;;;;;30.93;37.48;100074.27;102635;1300;61361;-83
2023/07/25 08:31:01;;;;;;;;;;;;;;;30.93;37.35;100075.33;102769;1300;61422;-83
2023/07/25 08:33:28;;;;;;;;;;;;;;;30.93;37.38;100075.91;102808;1300;61305;-82
2023/07/25 08:35:54;;;;;;;;;;;;;;;30.95;37.35;100083.36;102435;1302;61419;-83
2023/07/25 08:38:20;;;;;;;;;;;;;;;30.94;37.28;100080.16;102742;1300;61498;-83
2023/07/25 08:40:46;;;;;;;;;;;;;;;30.95;37.16;100071.75;102630;1300;61370;-83
2023/07/25 08:43:12;;;;;;;;;;;;;;;30.95;37.12;100071.28;102638;1300;61441;-83
2023/07/25 08:45:41;;;;;;;;;;;;;;;30.96;37.04;100067.98;102710;1301;62776;-82
2023/07/25 08:48:08;;;;;;;;;;;;;;;30.95;36.97;100070.36;102771;1305;63851;-83
2023/07/25 08:50:34;;;;;;;;;;;;;;;30.96;36.86;100065.21;102716;1300;65819;-83
2023/07/25 08:53:00;;;;;;;;;;;;;;;30.97;36.78;100065.69;102478;1300;61410;-83
2023/07/25 08:55:25;;;;;;;;;;;;;;;30.97;36.80;100065.83;102447;1300;61316;-82
2023/07/25 08:57:51;;;;;;;;;;;;;;;30.97;36.70;100061.38;102843;1300;61471;-83
2023/07/25 09:00:16;;;;;;;;;;;;;;;30.98;36.70;100054.29;102716;1305;61350;-82
2023/07/25 09:02:42;;;;;;;;;;;;;;;30.99;36.64;100049.81;102682;1302;61519;-83
2023/07/25 09:05:07;;;;;;;;;;;;;;;30.98;36.59;100050.78;102596;1300;61399;-82
2023/07/25 09:07:33;;;;;;;;;;;;;;;30.98;36.58;100051.83;102480;1302;61534;-82
2023/07/25 09:09:58;;;;;;;;;;;;;;;30.99;36.57;100050.87;102534;1300;61430;-83
2023/07/25 09:12:25;;;;;;;;;;;;;;;30.99;36.42;100047.71;102454;1300;61486;-82
2023/07/25 09:14:51;;;;;;;;;;;;;;;31.00;36.46;100048.17;102423;1300;66759;-82
2023/07/25 09:17:16;;;;;;;;;;;;;;;31.00;36.56;100042.70;102710;1302;61364;-83
2023/07/25 09:19:42;;;;;;;;;;;;;;;31.00;36.36;100042.55;102647;1300;61403;-82
2023/07/25 09:22:25;;;;;;;;;;;;;;;31.01;36.44;100041.19;102626;1305;61473;-83
2023/07/25 09:24:51;;;;;;;;;;;;;;;31.01;36.46;100038.46;102987;1300;65905;-83
2023/07/25 09:27:16;;;;;;;;;;;;;;;31.01;36.48;100037.38;102835;1300;61411;-82
2023/07/25 09:29:42;;;;;;;;;;;;;;;31.00;36.37;100039.60;102937;1304;61517;-83
2023/07/25 09:32:17;;;;;;;;;;;;;;;31.00;36.57;100038.67;102544;1300;61427;-83
2023/07/25 09:34:43;;;;;;;;;;;;;;;31.00;36.41;100038.89;102637;1300;65789;-83
2023/07/25 09:37:08;;;;;;;;;;;;;;;31.00;36.43;100036.54;102764;1306;61499;-83
2023/07/25 09:39:34;;;;;;;;;;;;;;;31.00;36.54;100032.17;102812;1305;61384;-83
2023/07/25 09:42:00;;;;;;;;;;;;;;;31.00;36.48;100034.35;102632;1300;61888;-83
2023/07/25 09:44:29;;;;;;;;;;;;;;;31.00;36.59;100032.84;102938;1304;61427;-83
2023/07/25 09:46:54;;;;;;;;;;;;;;;31.00;36.40;100031.04;102641;1300;61338;-83
2023/07/25 09:49:21;;;;;;;;;;;;;;;31.00;36.50;100033.05;102666;1300;61432;-83
2023/07/25 09:52:05;;;;;;;;;;;;;;;30.99;36.50;100028.40;102700;1300;61437;-83
2023/07/25 09:54:30;;;;;;;;;;;;;;;31.00;36.51;100021.27;102782;1300;65933;-83
2023/07/25 09:56:56;;;;;;;;;;;;;;;31.00;36.38;100015.45;103194;1303;61984;-83
2023/07/25 09:59:22;;;;;;;;;;;;;;;31.00;36.42;100012.17;103020;1299;61403;-83
2023/07/25 10:01:53;;;;;;;;;;;;;;;31.00;36.46;100008.36;102466;1300;61332;-82
2023/07/25 10:04:19;;;;;;;;;;;;;;;31.01;36.42;100002.62;102775;1300;65881;-82
2023/07/25 10:06:45;;;;;;;;;;;;;;;31.01;36.41;99996.67;102698;1300;61403;-82
2023/07/25 10:09:10;;;;;;;;;;;;;;;31.00;36.36;99989.59;102731;1300;61292;-82
2023/07/25 10:11:36;;;;;;;;;;;;;;;31.01;36.36;99990.30;102809;1302;61419;-82
2023/07/25 10:14:02;;;;;;;;;;;;;;;31.00;36.36;99991.96;102879;1304;61445;-82
2023/07/25 10:16:27;;;;;;;;;;;;;;;31.01;36.38;99991.55;102877;1299;61460;-82
2023/07/25 10:18:54;;;;;;;;;;;;;;;31.01;36.33;99986.81;102818;1302;61233;-82
2023/07/25 10:21:24;;;;;;;;;;;;;;;31.01;36.29;99979.36;102536;1308;61427;-82
2023/07/25 10:23:52;;;;;;;;;;;;;;;31.01;36.34;99971.94;102941;1299;63882;-82
2023/07/25 10:26:18;;;;;;;;;;;;;;;31.01;36.30;99969.17;102652;1299;65771;-82
2023/07/25 10:28:43;;;;;;;;;;;;;;;31.01;36.32;99966.85;102865;1299;61517;-82
2023/07/25 10:31:21;;;;;;;;;;;;;;;31.00;36.27;99962.33;103002;1300;61362;-82
2023/07/25 10:33:50;;;;;;;;;;;;;;;31.01;36.19;99961.41;102968;1304;63630;-82
2023/07/25 10:36:25;;;;;;;;;;;;;;;31.01;36.28;99953.06;103129;1299;65660;-82
2023/07/25 10:38:52;;;;;;;;;;;;;;;31.01;36.26;99949.20;103045;1300;61301;-82
2023/07/25 10:41:19;;;;;;;;;;;;;;;31.01;36.27;99947.91;103137;1299;61204;-82
2023/07/25 10:43:45;;;;;;;;;;;;;;;31.01;36.34;99946.65;102631;1308;61348;-82
2023/07/25 10:46:17;;;;;;;;;;;;;;;31.01;36.23;99946.27;102756;1299;61425;-82
2023/07/25 10:48:44;;;;;;;;;;;;;;;31.02;36.17;99942.38;102797;1302;61182;-82
2023/07/25 10:51:10;;;;;;;;;;;;;;;31.02;36.13;99939.27;103044;1300;61292;-82
2023/07/25 10:53:36;;;;;;;;;;;;;;;31.02;36.14;99940.20;102779;1300;61247;-82
2023/07/25 10:56:04;;;;;;;;;;;;;;;31.02;36.07;99932.73;102831;1302;61514;-82
2023/07/25 10:58:59;;;;;;;;;;;;;;;31.02;36.18;99935.25;103158;1300;61370;-82
2023/07/25 11:01:31;;;;;;;;;;;;;;;31.02;36.11;99932.57;102802;1300;61434;-82
2023/07/25 11:03:57;;;;;;;;;;;;;;;31.02;36.15;99937.27;102821;1304;63853;-82
2023/07/25 11:06:22;;;;;;;;;;;;;;;31.02;36.13;99932.77;102307;1306;61502;-82
2023/07/25 11:08:48;;;;;;;;;;;;;;;31.02;36.17;99937.06;102522;1300;61495;-82
2023/07/25 11:11:13;;;;;;;;;;;;;;;31.02;36.04;99932.77;102455;1300;61320;-82
2023/07/25 11:13:40;;;;;;;;;;;;;;;31.02;36.03;99932.90;102813;1299;61428;-82
2023/07/25 11:16:06;;;;;;;;;;;;;;;31.02;36.07;99925.10;102417;1299;63997;-82
2023/07/25 11:18:33;;;;;;;;;;;;;;;31.01;36.06;99917.55;102624;1300;61444;-82
2023/07/25 11:21:05;;;;;;;;;;;;;;;31.01;36.03;99912.70;102566;1305;61409;-82
2023/07/25 11:23:30;;;;;;;;;;;;;;;31.01;36.02;99907.79;102943;1299;61326;-82
2023/07/25 11:25:58;;;;;;;;;;;;;;;31.01;36.05;99905.40;102818;1302;61364;-82
2023/07/25 11:28:24;;;;;;;;;;;;;;;31.00;36.07;99902.20;102956;1300;61438;-82
2023/07/25 11:30:51;;;;;;;;;;;;;;;31.01;36.09;99897.05;102713;1303;61444;-82
2023/07/25 11:33:17;;;;;;;;;;;;;;;31.01;36.22;99889.26;102750;1300;61389;-82
2023/07/25 11:35:42;;;;;;;;;;;;;;;31.01;36.14;99887.61;102494;1303;62718;-82
2023/07/25 11:38:09;;;;;;;;;;;;;;;31.01;36.08;99887.11;102600;1300;62245;-82
2023/07/25 11:40:35;;;;;;;;;;;;;;;31.01;36.12;99880.03;102478;1303;61368;-82
2023/07/25 11:43:00;;;;;;;;;;;;;;;31.01;36.10;99887.37;102493;1305;61329;-82
2023/07/25 11:45:26;;;;;;;;;;;;;;;31.01;36.09;99881.91;102498;1304;61403;-82
2023/07/25 11:47:51;;;;;;;;;;;;;;;31.01;36.11;99879.02;102339;1302;63921;-82
2023/07/25 11:50:18;;;;;;;;;;;;;;;31.01;36.13;99871.23;102326;1303;61495;-82
2023/07/25 11:52:44;;;;;;;;;;;;;;;31.01;36.16;99867.96;102463;1300;61426;-82
2023/07/25 11:55:09;;;;;;;;;;;;;;;31.01;36.10;99864.55;102636;1305;61524;-82
2023/07/25 11:57:35;;;;;;;;;;;;;;;31.01;36.05;99864.52;102461;1305;61353;-82
2023/07/25 12:00:01;;;;;;;;;;;;;;;31.01;36.12;99858.70;102552;1299;61330;-83
2023/07/25 12:02:27;;;;;;;;;;;;;;;31.01;36.15;99854.92;102415;1299;63338;-83
2023/07/25 12:04:53;;;;;;;;;;;;;;;31.01;36.24;99849.42;102557;1304;61751;-83
2023/07/25 12:07:18;;;;;;;;;;;;;;;31.01;36.11;99841.29;102482;1300;61438;-82
2023/07/25 12:09:52;;;;;;;;;;;;;;;31.01;36.04;99837.98;102497;1300;61387;-83
2023/07/25 12:12:18;;;;;;;;;;;;;;;31.02;36.09;99826.66;102438;1305;65796;-83
2023/07/25 12:14:54;;;;;;;;;;;;;;;31.02;36.10;99826.95;102465;1300;61300;-83
2023/07/25 12:17:19;;;;;;;;;;;;;;;31.02;36.15;99824.98;102378;1308;61345;-82
2023/07/25 12:19:52;;;;;;;;;;;;;;;31.02;36.17;99827.13;102442;1300;61345;-83
2023/07/25 12:22:18;;;;;;;;;;;;;;;31.02;36.14;99824.02;102305;1303;65765;-83